sensor_id;sensor_type;location;lat;lon;timestamp;pressure;altitude;pressure_sealevel;temperature;humidity
21290;BME280;10804;48.988;2.408;2022-12-20T00:00:49;100770.50;;;10.04;60.51
21290;BME280;10804;48.988;2.408;2022-12-20T00:03:17;100773.06;;;10.05;60.75
21290;BME280;10804;48.988;2.408;2022-12-20T00:05:45;100768.72;;;10.06;60.98
21290;BME280;10804;48.988;2.408;2022-12-20T00:08:12;100765.19;;;10.07;60.65
21290;BME280;10804;48.988;2.408;2022-12-20T00:10:41;100767.81;;;10.07;60.58
21290;BME280;10804;48.988;2.408;2022-12-20T00:13:11;100762.59;;;10.07;60.86
21290;BME280;10804;48.988;2.408;2022-12-20T00:15:39;100757.38;;;10.08;60.66
21290;BME280;10804;48.988;2.408;2022-12-20T00:18:06;100746.97;;;10.07;60.64
21290;BME280;10804;48.988;2.408;2022-12-20T00:20:33;100747.81;;;10.09;60.63
21290;BME280;10804;48.988;2.408;2022-12-20T00:23:01;100753.84;;;10.11;60.61
21290;BME280;10804;48.988;2.408;2022-12-20T00:25:29;100750.41;;;10.09;60.84
21290;BME280;10804;48.988;2.408;2022-12-20T00:27:56;100743.41;;;10.11;60.79
21290;BME280;10804;48.988;2.408;2022-12-20T00:30:25;100743.41;;;10.11;60.65
21290;BME280;10804;48.988;2.408;2022-12-20T00:32:52;100732.09;;;10.12;60.71
21290;BME280;10804;48.988;2.408;2022-12-20T00:35:20;100740.78;;;10.12;60.84
21290;BME280;10804;48.988;2.408;2022-12-20T00:37:47;100732.97;;;10.12;60.64
21290;BME280;10804;48.988;2.408;2022-12-20T00:40:15;100729.50;;;10.12;60.92
21290;BME280;10804;48.988;2.408;2022-12-20T00:42:42;100727.69;;;10.14;60.77
21290;BME280;10804;48.988;2.408;2022-12-20T00:45:10;100725.09;;;10.14;60.80
21290;BME280;10804;48.988;2.408;2022-12-20T00:47:39;100700.31;;;9.96;60.92
21290;BME280;10804;48.988;2.408;2022-12-20T00:50:07;100729.41;;;10.15;60.63
21290;BME280;10804;48.988;2.408;2022-12-20T00:52:34;100729.41;;;10.15;60.63
21290;BME280;10804;48.988;2.408;2022-12-20T00:55:03;100730.28;;;10.15;60.80
21290;BME280;10804;48.988;2.408;2022-12-20T00:57:31;100711.13;;;10.16;60.82
21290;BME280;10804;48.988;2.408;2022-12-20T00:59:58;100713.84;;;10.12;60.92
21290;BME280;10804;48.988;2.408;2022-12-20T01:02:25;100712.91;;;10.16;60.83
21290;BME280;10804;48.988;2.408;2022-12-20T01:04:54;100724.13;;;10.18;60.82
21290;BME280;10804;48.988;2.408;2022-12-20T01:07:22;100723.25;;;10.17;61.01
21290;BME280;10804;48.988;2.408;2022-12-20T01:09:49;100721.53;;;10.18;60.97
21290;BME280;10804;48.988;2.408;2022-12-20T01:12:17;100731.94;;;10.18;60.88
21290;BME280;10804;48.988;2.408;2022-12-20T01:14:44;100727.56;;;10.18;60.82
21290;BME280;10804;48.988;2.408;2022-12-20T01:17:12;100718.03;;;10.19;60.79
21290;BME280;10804;48.988;2.408;2022-12-20T01:19:40;100710.22;;;10.19;60.86
21290;BME280;10804;48.988;2.408;2022-12-20T01:22:09;100707.56;;;10.20;61.12
21290;BME280;10804;48.988;2.408;2022-12-20T01:24:36;100708.41;;;10.21;61.02
21290;BME280;10804;48.988;2.408;2022-12-20T01:27:04;100703.19;;;10.21;60.91
21290;BME280;10804;48.988;2.408;2022-12-20T01:29:31;100707.50;;;10.22;60.98
21290;BME280;10804;48.988;2.408;2022-12-20T01:31:58;100708.38;;;10.22;60.94
21290;BME280;10804;48.988;2.408;2022-12-20T01:34:26;100705.78;;;10.22;60.80
21290;BME280;10804;48.988;2.408;2022-12-20T01:36:53;100709.25;;;10.23;61.18
21290;BME280;10804;48.988;2.408;2022-12-20T01:39:22;100714.47;;;10.23;60.87
21290;BME280;10804;48.988;2.408;2022-12-20T01:41:49;100705.78;;;10.22;60.96
21290;BME280;10804;48.988;2.408;2022-12-20T01:44:55;100698.84;;;10.23;60.78
21290;BME280;10804;48.988;2.408;2022-12-20T01:47:24;100706.59;;;10.24;60.93
21290;BME280;10804;48.988;2.408;2022-12-20T01:49:55;100705.75;;;10.24;61.10
21290;BME280;10804;48.988;2.408;2022-12-20T01:52:28;100704.88;;;10.23;60.88
21290;BME280;10804;48.988;2.408;2022-12-20T01:55:04;100708.28;;;10.25;60.99
21290;BME280;10804;48.988;2.408;2022-12-20T01:57:36;100700.44;;;10.27;60.84
21290;BME280;10804;48.988;2.408;2022-12-20T02:00:12;100695.47;;;10.18;60.83
21290;BME280;10804;48.988;2.408;2022-12-20T02:02:44;100716.09;;;10.27;60.83
21290;BME280;10804;48.988;2.408;2022-12-20T02:05:12;100716.97;;;10.27;60.96
21290;BME280;10804;48.988;2.408;2022-12-20T02:07:45;100724.72;;;10.29;61.04
21290;BME280;10804;48.988;2.408;2022-12-20T02:10:18;100719.50;;;10.29;61.13
21290;BME280;10804;48.988;2.408;2022-12-20T02:12:47;100725.63;;;10.28;61.09
21290;BME280;10804;48.988;2.408;2022-12-20T02:15:31;100724.72;;;10.29;60.90
21290;BME280;10804;48.988;2.408;2022-12-20T02:18:07;100735.13;;;10.30;60.87
21290;BME280;10804;48.988;2.408;2022-12-20T02:20:50;100728.16;;;10.31;61.05
21290;BME280;10804;48.988;2.408;2022-12-20T02:23:45;100716.88;;;10.30;60.90
21290;BME280;10804;48.988;2.408;2022-12-20T02:26:32;100722.97;;;10.31;60.85
21290;BME280;10804;48.988;2.408;2022-12-20T02:32:01;100719.44;;;10.32;60.92
21290;BME280;10804;48.988;2.408;2022-12-20T02:34:35;100715.13;;;10.31;61.03
21290;BME280;10804;48.988;2.408;2022-12-20T02:37:03;100721.16;;;10.33;60.99
21290;BME280;10804;48.988;2.408;2022-12-20T02:39:32;100717.66;;;10.34;61.30
21290;BME280;10804;48.988;2.408;2022-12-20T02:42:04;100715.94;;;10.33;61.24
21290;BME280;10804;48.988;2.408;2022-12-20T02:44:35;100708.97;;;10.33;61.06
21290;BME280;10804;48.988;2.408;2022-12-20T02:47:26;100702.88;;;10.34;61.07
21290;BME280;10804;48.988;2.408;2022-12-20T02:49:55;100695.06;;;10.34;61.00
21290;BME280;10804;48.988;2.408;2022-12-20T02:52:25;100691.56;;;10.35;61.25
21290;BME280;10804;48.988;2.408;2022-12-20T02:54:57;100693.28;;;10.35;61.01
21290;BME280;10804;48.988;2.408;2022-12-20T02:57:30;100694.16;;;10.35;60.93
21290;BME280;10804;48.988;2.408;2022-12-20T03:00:04;100676.72;;;10.37;61.03
21290;BME280;10804;48.988;2.408;2022-12-20T03:02:36;100662.81;;;10.37;61.16
21290;BME280;10804;48.988;2.408;2022-12-20T03:05:19;100655.00;;;10.37;61.19
21290;BME280;10804;48.988;2.408;2022-12-20T03:07:48;100660.22;;;10.37;61.02
21290;BME280;10804;48.988;2.408;2022-12-20T03:10:19;100653.25;;;10.37;61.04
21290;BME280;10804;48.988;2.408;2022-12-20T03:12:46;100656.72;;;10.38;61.07
21290;BME280;10804;48.988;2.408;2022-12-20T03:15:15;100654.97;;;10.38;61.08
21290;BME280;10804;48.988;2.408;2022-12-20T03:17:44;100661.88;;;10.39;61.00
21290;BME280;10804;48.988;2.408;2022-12-20T03:20:11;100648.03;;;10.39;61.04
21290;BME280;10804;48.988;2.408;2022-12-20T03:22:39;100662.75;;;10.40;61.16
21290;BME280;10804;48.988;2.408;2022-12-20T03:25:08;100657.56;;;10.38;61.04
21290;BME280;10804;48.988;2.408;2022-12-20T03:27:35;100661.88;;;10.41;60.96
21290;BME280;10804;48.988;2.408;2022-12-20T03:30:04;100667.06;;;10.41;61.07
21290;BME280;10804;48.988;2.408;2022-12-20T03:32:34;100661.00;;;10.40;61.20
21290;BME280;10804;48.988;2.408;2022-12-20T03:35:04;100650.56;;;10.40;61.14
21290;BME280;10804;48.988;2.408;2022-12-20T03:37:35;100653.16;;;10.40;61.03
21290;BME280;10804;48.988;2.408;2022-12-20T03:40:05;100654.94;;;10.40;61.32
21290;BME280;10804;48.988;2.408;2022-12-20T03:42:34;100660.97;;;10.42;61.06
21290;BME280;10804;48.988;2.408;2022-12-20T03:45:01;100663.56;;;10.42;61.00
21290;BME280;10804;48.988;2.408;2022-12-20T03:47:30;100654.00;;;10.42;61.32
21290;BME280;10804;48.988;2.408;2022-12-20T03:49:58;100649.63;;;10.43;61.37
21290;BME280;10804;48.988;2.408;2022-12-20T03:52:30;100648.78;;;10.42;61.27
21290;BME280;10804;48.988;2.408;2022-12-20T03:54:57;100645.31;;;10.42;61.38
21290;BME280;10804;48.988;2.408;2022-12-20T03:57:32;100637.47;;;10.43;61.30
21290;BME280;10804;48.988;2.408;2022-12-20T03:59:59;100631.38;;;10.43;61.42
21290;BME280;10804;48.988;2.408;2022-12-20T04:02:27;100634.00;;;10.43;61.38
21290;BME280;10804;48.988;2.408;2022-12-20T04:04:54;100628.78;;;10.43;61.39
21290;BME280;10804;48.988;2.408;2022-12-20T04:07:22;100620.06;;;10.44;61.42
21290;BME280;10804;48.988;2.408;2022-12-20T04:09:51;100623.56;;;10.43;61.54
21290;BME280;10804;48.988;2.408;2022-12-20T04:12:18;100624.38;;;10.45;61.46
21290;BME280;10804;48.988;2.408;2022-12-20T04:14:46;100614.84;;;10.44;61.56
21290;BME280;10804;48.988;2.408;2022-12-20T04:17:13;100609.63;;;10.44;61.36
21290;BME280;10804;48.988;2.408;2022-12-20T04:19:41;100611.34;;;10.45;61.77
21290;BME280;10804;48.988;2.408;2022-12-20T04:22:09;100611.34;;;10.45;61.65
21290;BME280;10804;48.988;2.408;2022-12-20T04:24:53;100607.88;;;10.46;61.55
21290;BME280;10804;48.988;2.408;2022-12-20T04:27:34;100613.94;;;10.45;61.70
21290;BME280;10804;48.988;2.408;2022-12-20T04:30:06;100606.13;;;10.45;61.54
21290;BME280;10804;48.988;2.408;2022-12-20T04:32:34;100604.41;;;10.44;61.79
21290;BME280;10804;48.988;2.408;2022-12-20T04:35:02;100603.50;;;10.45;61.71
21290;BME280;10804;48.988;2.408;2022-12-20T04:37:34;100599.16;;;10.45;61.66
21290;BME280;10804;48.988;2.408;2022-12-20T04:40:03;100597.44;;;10.46;61.72
21290;BME280;10804;48.988;2.408;2022-12-20T04:42:42;100599.16;;;10.45;61.70
21290;BME280;10804;48.988;2.408;2022-12-20T04:45:12;100597.44;;;10.46;61.42
21290;BME280;10804;48.988;2.408;2022-12-20T04:47:39;100593.06;;;10.46;61.87
21290;BME280;10804;48.988;2.408;2022-12-20T04:50:09;100598.31;;;10.45;61.90
21290;BME280;10804;48.988;2.408;2022-12-20T04:52:36;100599.97;;;10.47;61.71
21290;BME280;10804;48.988;2.408;2022-12-20T04:55:23;100598.28;;;10.46;61.79
21290;BME280;10804;48.988;2.408;2022-12-20T04:57:50;100593.94;;;10.47;61.80
21290;BME280;10804;48.988;2.408;2022-12-20T05:00:18;100593.06;;;10.46;61.68
21290;BME280;10804;48.988;2.408;2022-12-20T05:02:52;100591.31;;;10.47;61.67
21290;BME280;10804;48.988;2.408;2022-12-20T05:05:23;100594.75;;;10.47;61.68
21290;BME280;10804;48.988;2.408;2022-12-20T05:07:53;100590.41;;;10.48;61.72
21290;BME280;10804;48.988;2.408;2022-12-20T05:10:24;100599.06;;;10.48;61.80
21290;BME280;10804;48.988;2.408;2022-12-20T05:12:53;100602.56;;;10.49;61.83
21290;BME280;10804;48.988;2.408;2022-12-20T05:15:31;100596.47;;;10.48;61.69
21290;BME280;10804;48.988;2.408;2022-12-20T05:17:59;100581.69;;;10.49;61.72
21290;BME280;10804;48.988;2.408;2022-12-20T05:20:35;100576.47;;;10.49;61.72
21290;BME280;10804;48.988;2.408;2022-12-20T05:23:03;100573.88;;;10.49;61.86
21290;BME280;10804;48.988;2.408;2022-12-20T05:25:53;100570.41;;;10.48;61.89
21290;BME280;10804;48.988;2.408;2022-12-20T05:28:38;100574.72;;;10.49;61.74
21290;BME280;10804;48.988;2.408;2022-12-20T05:31:06;100569.50;;;10.49;61.80
21290;BME280;10804;48.988;2.408;2022-12-20T05:33:35;100559.06;;;10.49;61.80
21290;BME280;10804;48.988;2.408;2022-12-20T05:36:04;100567.75;;;10.50;61.99
21290;BME280;10804;48.988;2.408;2022-12-20T05:38:32;100567.75;;;10.50;61.90
21290;BME280;10804;48.988;2.408;2022-12-20T05:41:01;100564.25;;;10.51;62.01
21290;BME280;10804;48.988;2.408;2022-12-20T05:43:30;100559.03;;;10.51;61.84
21290;BME280;10804;48.988;2.408;2022-12-20T05:45:57;100561.59;;;10.52;61.82
21290;BME280;10804;48.988;2.408;2022-12-20T05:48:33;100565.13;;;10.51;61.92
21290;BME280;10804;48.988;2.408;2022-12-20T05:51:00;100572.88;;;10.53;61.93
21290;BME280;10804;48.988;2.408;2022-12-20T05:53:30;100579.84;;;10.52;61.81
21290;BME280;10804;48.988;2.408;2022-12-20T05:56:02;100576.34;;;10.53;61.72
21290;BME280;10804;48.988;2.408;2022-12-20T05:58:36;100560.75;;;10.52;61.85
21290;BME280;10804;48.988;2.408;2022-12-20T06:01:06;100551.19;;;10.52;61.89
21290;BME280;10804;48.988;2.408;2022-12-20T06:03:37;100554.63;;;10.53;61.88
21290;BME280;10804;48.988;2.408;2022-12-20T06:06:16;100564.19;;;10.54;61.86
21290;BME280;10804;48.988;2.408;2022-12-20T06:08:46;100575.44;;;10.54;61.88
21290;BME280;10804;48.988;2.408;2022-12-20T06:11:21;100562.38;;;10.56;62.05
21290;BME280;10804;48.988;2.408;2022-12-20T06:13:58;100564.97;;;10.56;61.95
21290;BME280;10804;48.988;2.408;2022-12-20T06:16:25;100562.38;;;10.56;61.93
21290;BME280;10804;48.988;2.408;2022-12-20T06:18:55;100578.03;;;10.56;61.74
21290;BME280;10804;48.988;2.408;2022-12-20T06:21:23;100571.09;;;10.55;61.89
21290;BME280;10804;48.988;2.408;2022-12-20T06:23:53;100581.47;;;10.56;61.84
21290;BME280;10804;48.988;2.408;2022-12-20T06:26:22;100580.63;;;10.56;61.71
21290;BME280;10804;48.988;2.408;2022-12-20T06:28:50;100584.06;;;10.56;61.93
21290;BME280;10804;48.988;2.408;2022-12-20T06:31:36;100579.72;;;10.57;61.79
21290;BME280;10804;48.988;2.408;2022-12-20T06:34:03;100580.59;;;10.57;61.90
21290;BME280;10804;48.988;2.408;2022-12-20T06:36:34;100578.81;;;10.58;61.90
21290;BME280;10804;48.988;2.408;2022-12-20T06:39:02;100578.81;;;10.58;61.93
21290;BME280;10804;48.988;2.408;2022-12-20T06:41:32;100572.72;;;10.59;62.11
21290;BME280;10804;48.988;2.408;2022-12-20T06:43:59;100574.41;;;10.60;61.98
21290;BME280;10804;48.988;2.408;2022-12-20T06:46:27;100569.19;;;10.60;61.95
21290;BME280;10804;48.988;2.408;2022-12-20T06:48:57;100574.41;;;10.60;61.91
21290;BME280;10804;48.988;2.408;2022-12-20T06:51:25;100585.75;;;10.59;61.89
21290;BME280;10804;48.988;2.408;2022-12-20T06:53:53;100588.31;;;10.60;61.80
21290;BME280;10804;48.988;2.408;2022-12-20T06:56:22;100585.69;;;10.62;61.92
21290;BME280;10804;48.988;2.408;2022-12-20T06:58:51;100577.88;;;10.60;61.94
21290;BME280;10804;48.988;2.408;2022-12-20T07:01:18;100572.69;;;10.60;61.82
21290;BME280;10804;48.988;2.408;2022-12-20T07:03:46;100570.91;;;10.61;61.81
21290;BME280;10804;48.988;2.408;2022-12-20T07:06:13;100572.66;;;10.62;61.90
21290;BME280;10804;48.988;2.408;2022-12-20T07:08:40;100570.03;;;10.62;61.93
21290;BME280;10804;48.988;2.408;2022-12-20T07:11:07;100577.84;;;10.62;61.99
21290;BME280;10804;48.988;2.408;2022-12-20T07:13:35;100569.13;;;10.63;61.81
21290;BME280;10804;48.988;2.408;2022-12-20T07:16:04;100571.75;;;10.63;61.86
21290;BME280;10804;48.988;2.408;2022-12-20T07:18:32;100574.34;;;10.63;62.09
21290;BME280;10804;48.988;2.408;2022-12-20T07:21:02;100573.34;;;10.67;62.48
21290;BME280;10804;48.988;2.408;2022-12-20T07:23:30;100565.25;;;10.76;63.06
21290;BME280;10804;48.988;2.408;2022-12-20T07:25:59;100570.38;;;10.80;63.51
21290;BME280;10804;48.988;2.408;2022-12-20T07:28:28;100576.38;;;10.82;63.59
21290;BME280;10804;48.988;2.408;2022-12-20T07:30:59;100569.34;;;10.84;63.79
21290;BME280;10804;48.988;2.408;2022-12-20T07:33:28;100564.13;;;10.84;63.58
21290;BME280;10804;48.988;2.408;2022-12-20T07:35:59;100566.72;;;10.86;63.43
21290;BME280;10804;48.988;2.408;2022-12-20T07:38:27;100571.06;;;10.85;63.36
21290;BME280;10804;48.988;2.408;2022-12-20T07:40:54;100565.84;;;10.85;63.28
21290;BME280;10804;48.988;2.408;2022-12-20T07:43:22;100563.28;;;10.84;63.23
21290;BME280;10804;48.988;2.408;2022-12-20T07:45:53;100565.00;;;10.85;63.34
21290;BME280;10804;48.988;2.408;2022-12-20T07:48:21;100565.00;;;10.85;63.26
21290;BME280;10804;48.988;2.408;2022-12-20T07:50:52;100558.03;;;10.85;63.32
21290;BME280;10804;48.988;2.408;2022-12-20T07:53:22;100568.50;;;10.84;63.30
21290;BME280;10804;48.988;2.408;2022-12-20T07:55:52;100571.94;;;10.86;63.31
21290;BME280;10804;48.988;2.408;2022-12-20T07:58:20;100573.72;;;10.84;63.33
21290;BME280;10804;48.988;2.408;2022-12-20T08:00:48;100575.44;;;10.85;63.19
21290;BME280;10804;48.988;2.408;2022-12-20T08:03:17;100559.78;;;10.85;63.08
21290;BME280;10804;48.988;2.408;2022-12-20T08:05:49;100565.00;;;10.85;63.31
21290;BME280;10804;48.988;2.408;2022-12-20T08:08:19;100567.63;;;10.85;63.24
21290;BME280;10804;48.988;2.408;2022-12-20T08:10:47;100569.34;;;10.84;63.18
21290;BME280;10804;48.988;2.408;2022-12-20T08:13:15;100570.22;;;10.85;63.20
21290;BME280;10804;48.988;2.408;2022-12-20T08:15:43;100569.31;;;10.86;63.01
21290;BME280;10804;48.988;2.408;2022-12-20T08:18:10;100570.22;;;10.85;63.15
21290;BME280;10804;48.988;2.408;2022-12-20T08:20:38;100564.94;;;10.86;63.14
21290;BME280;10804;48.988;2.408;2022-12-20T08:23:05;100552.78;;;10.87;63.08
21290;BME280;10804;48.988;2.408;2022-12-20T08:25:34;100565.81;;;10.87;63.23
21290;BME280;10804;48.988;2.408;2022-12-20T08:28:01;100565.84;;;10.85;63.16
21290;BME280;10804;48.988;2.408;2022-12-20T08:30:29;100573.63;;;10.87;63.10
21290;BME280;10804;48.988;2.408;2022-12-20T08:32:56;100568.41;;;10.87;63.17
21290;BME280;10804;48.988;2.408;2022-12-20T08:35:24;100563.19;;;10.87;63.25
21290;BME280;10804;48.988;2.408;2022-12-20T08:37:51;100550.97;;;10.89;63.28
21290;BME280;10804;48.988;2.408;2022-12-20T08:40:19;100552.66;;;10.90;63.12
21290;BME280;10804;48.988;2.408;2022-12-20T08:42:48;100558.78;;;10.89;63.08
21290;BME280;10804;48.988;2.408;2022-12-20T08:45:15;100562.19;;;10.91;63.13
21290;BME280;10804;48.988;2.408;2022-12-20T08:47:43;100561.31;;;10.92;63.02
21290;BME280;10804;48.988;2.408;2022-12-20T08:50:11;100554.38;;;10.91;63.17
21290;BME280;10804;48.988;2.408;2022-12-20T08:52:39;100556.09;;;10.92;63.07
21290;BME280;10804;48.988;2.408;2022-12-20T08:55:07;100551.72;;;10.92;62.95
21290;BME280;10804;48.988;2.408;2022-12-20T08:57:34;100551.72;;;10.92;62.87
21290;BME280;10804;48.988;2.408;2022-12-20T09:00:04;100565.63;;;10.93;63.09
21290;BME280;10804;48.988;2.408;2022-12-20T09:02:33;100569.09;;;10.93;62.91
21290;BME280;10804;48.988;2.408;2022-12-20T09:05:00;100559.50;;;10.94;62.90
21290;BME280;10804;48.988;2.408;2022-12-20T09:07:28;100558.66;;;10.93;62.85
21290;BME280;10804;48.988;2.408;2022-12-20T09:09:55;100565.63;;;10.93;62.84
21290;BME280;10804;48.988;2.408;2022-12-20T09:12:22;100566.47;;;10.93;63.07
21290;BME280;10804;48.988;2.408;2022-12-20T09:14:50;100578.56;;;10.96;62.71
21290;BME280;10804;48.988;2.408;2022-12-20T09:17:18;100576.88;;;10.95;62.79
21290;BME280;10804;48.988;2.408;2022-12-20T09:19:46;100573.41;;;10.94;62.72
21290;BME280;10804;48.988;2.408;2022-12-20T09:22:13;100574.25;;;10.95;62.81
21290;BME280;10804;48.988;2.408;2022-12-20T09:24:40;100574.25;;;10.95;62.72
21290;BME280;10804;48.988;2.408;2022-12-20T09:27:07;100583.78;;;10.96;62.91
21290;BME280;10804;48.988;2.408;2022-12-20T09:29:35;100589.00;;;10.96;62.60
21290;BME280;10804;48.988;2.408;2022-12-20T09:32:02;100586.41;;;10.96;62.65
21290;BME280;10804;48.988;2.408;2022-12-20T09:34:31;100580.28;;;10.97;62.56
21290;BME280;10804;48.988;2.408;2022-12-20T09:36:58;100577.69;;;10.97;62.67
21290;BME280;10804;48.988;2.408;2022-12-20T09:39:26;100579.38;;;10.98;62.62
21290;BME280;10804;48.988;2.408;2022-12-20T09:41:53;100582.00;;;10.98;62.64
21290;BME280;10804;48.988;2.408;2022-12-20T09:44:24;100587.22;;;10.98;62.61
21290;BME280;10804;48.988;2.408;2022-12-20T09:46:55;100593.28;;;10.98;62.66
21290;BME280;10804;48.988;2.408;2022-12-20T09:49:27;100583.69;;;10.99;62.57
21290;BME280;10804;48.988;2.408;2022-12-20T09:52:17;100590.69;;;10.98;62.52
21290;BME280;10804;48.988;2.408;2022-12-20T09:54:55;100586.31;;;10.99;62.66
21290;BME280;10804;48.988;2.408;2022-12-20T09:57:31;100591.50;;;11.00;62.58
21290;BME280;10804;48.988;2.408;2022-12-20T10:00:11;100588.84;;;11.02;62.50
21290;BME280;10804;48.988;2.408;2022-12-20T10:02:39;100587.13;;;11.01;62.51
21290;BME280;10804;48.988;2.408;2022-12-20T10:05:12;100580.16;;;11.01;62.39
21290;BME280;10804;48.988;2.408;2022-12-20T10:07:47;100582.75;;;11.01;62.57
21290;BME280;10804;48.988;2.408;2022-12-20T10:10:40;100587.13;;;11.01;62.49
21290;BME280;10804;48.988;2.408;2022-12-20T10:13:22;100575.78;;;11.02;62.59
21290;BME280;10804;48.988;2.408;2022-12-20T10:15:58;100571.47;;;11.01;62.56
21290;BME280;10804;48.988;2.408;2022-12-20T10:18:44;100566.25;;;11.01;62.68
21290;BME280;10804;48.988;2.408;2022-12-20T10:21:20;100574.03;;;11.02;62.61
21290;BME280;10804;48.988;2.408;2022-12-20T10:23:57;100573.19;;;11.02;62.67
21290;BME280;10804;48.988;2.408;2022-12-20T10:26:27;100574.88;;;11.03;62.58
21290;BME280;10804;48.988;2.408;2022-12-20T10:28:55;100580.16;;;11.01;62.85
21290;BME280;10804;48.988;2.408;2022-12-20T10:31:22;100584.47;;;11.02;62.63
21290;BME280;10804;48.988;2.408;2022-12-20T10:33:50;100579.25;;;11.02;62.51
21290;BME280;10804;48.988;2.408;2022-12-20T10:36:25;100573.19;;;11.02;62.77
21290;BME280;10804;48.988;2.408;2022-12-20T10:38:55;100576.63;;;11.02;62.88
21290;BME280;10804;48.988;2.408;2022-12-20T10:41:25;100571.38;;;11.04;62.71
21290;BME280;10804;48.988;2.408;2022-12-20T10:43:56;100569.66;;;11.03;62.76
21290;BME280;10804;48.988;2.408;2022-12-20T10:46:34;100554.88;;;11.03;62.73
21290;BME280;10804;48.988;2.408;2022-12-20T10:49:21;100563.56;;;11.04;62.87
21290;BME280;10804;48.988;2.408;2022-12-20T10:51:53;100558.38;;;11.02;62.82
21290;BME280;10804;48.988;2.408;2022-12-20T10:54:24;100563.56;;;11.04;63.02
21290;BME280;10804;48.988;2.408;2022-12-20T10:56:57;100561.09;;;10.99;62.87
21290;BME280;10804;48.988;2.408;2022-12-20T10:59:29;100567.88;;;11.05;62.84
21290;BME280;10804;48.988;2.408;2022-12-20T11:01:58;100562.63;;;11.05;62.85
21290;BME280;10804;48.988;2.408;2022-12-20T11:04:28;100558.31;;;11.04;62.88
21290;BME280;10804;48.988;2.408;2022-12-20T11:06:56;100559.13;;;11.06;62.87
21290;BME280;10804;48.988;2.408;2022-12-20T11:09:28;100543.53;;;11.04;62.94
21290;BME280;10804;48.988;2.408;2022-12-20T11:12:02;100547.84;;;11.05;62.95
21290;BME280;10804;48.988;2.408;2022-12-20T11:14:31;100540.94;;;11.04;62.92
21290;BME280;10804;48.988;2.408;2022-12-20T11:17:03;100547.00;;;11.05;63.07
21290;BME280;10804;48.988;2.408;2022-12-20T11:19:57;100548.69;;;11.06;63.00
21290;BME280;10804;48.988;2.408;2022-12-20T11:22:39;100542.63;;;11.05;63.09
21290;BME280;10804;48.988;2.408;2022-12-20T11:25:28;100538.25;;;11.06;63.11
21290;BME280;10804;48.988;2.408;2022-12-20T11:28:10;100538.25;;;11.06;62.86
21290;BME280;10804;48.988;2.408;2022-12-20T11:30:49;100540.88;;;11.06;63.04
21290;BME280;10804;48.988;2.408;2022-12-20T11:33:34;100538.25;;;11.06;63.13
21290;BME280;10804;48.988;2.408;2022-12-20T11:36:12;100536.47;;;11.08;63.14
21290;BME280;10804;48.988;2.408;2022-12-20T11:38:46;100521.69;;;11.07;63.15
21290;BME280;10804;48.988;2.408;2022-12-20T11:41:26;100519.09;;;11.07;63.05
21290;BME280;10804;48.988;2.408;2022-12-20T11:44:06;100529.53;;;11.07;63.17
21290;BME280;10804;48.988;2.408;2022-12-20T11:46:50;100528.69;;;11.06;63.11
21290;BME280;10804;48.988;2.408;2022-12-20T11:49:40;100516.47;;;11.07;63.11
21290;BME280;10804;48.988;2.408;2022-12-20T11:52:22;100505.16;;;11.08;63.15
21290;BME280;10804;48.988;2.408;2022-12-20T11:55:03;100500.81;;;11.07;63.08
21290;BME280;10804;48.988;2.408;2022-12-20T11:57:38;100494.72;;;11.08;63.21
21290;BME280;10804;48.988;2.408;2022-12-20T12:00:12;100493.81;;;11.09;63.26
21290;BME280;10804;48.988;2.408;2022-12-20T12:02:43;100498.13;;;11.10;63.41
21290;BME280;10804;48.988;2.408;2022-12-20T12:05:18;100483.38;;;11.09;63.28
21290;BME280;10804;48.988;2.408;2022-12-20T12:07:49;100477.25;;;11.10;63.38
21290;BME280;10804;48.988;2.408;2022-12-20T12:10:21;100478.16;;;11.09;63.24
21290;BME280;10804;48.988;2.408;2022-12-20T12:12:56;100485.03;;;11.11;63.31
21290;BME280;10804;48.988;2.408;2022-12-20T12:15:29;100476.34;;;11.11;63.31
21290;BME280;10804;48.988;2.408;2022-12-20T12:18:04;100470.22;;;11.12;63.29
21290;BME280;10804;48.988;2.408;2022-12-20T12:20:39;100470.22;;;11.12;63.34
21290;BME280;10804;48.988;2.408;2022-12-20T12:23:15;100461.59;;;11.10;63.21
21290;BME280;10804;48.988;2.408;2022-12-20T12:25:45;100451.94;;;11.12;63.35
21290;BME280;10804;48.988;2.408;2022-12-20T12:28:14;100443.28;;;11.11;63.25
21290;BME280;10804;48.988;2.408;2022-12-20T12:30:47;100445.81;;;11.13;63.43
21290;BME280;10804;48.988;2.408;2022-12-20T12:33:17;100445.03;;;11.11;63.46
21290;BME280;10804;48.988;2.408;2022-12-20T12:35:59;100440.69;;;11.11;63.62
21290;BME280;10804;48.988;2.408;2022-12-20T12:41:58;100429.34;;;11.12;63.38
21290;BME280;10804;48.988;2.408;2022-12-20T12:44:39;100445.00;;;11.12;63.45
21290;BME280;10804;48.988;2.408;2022-12-20T12:47:13;100434.56;;;11.12;63.48
21290;BME280;10804;48.988;2.408;2022-12-20T12:49:46;100429.34;;;11.12;63.58
21290;BME280;10804;48.988;2.408;2022-12-20T12:52:28;100433.69;;;11.12;63.58
21290;BME280;10804;48.988;2.408;2022-12-20T12:54:57;100418.03;;;11.12;63.53
21290;BME280;10804;48.988;2.408;2022-12-20T12:57:24;100424.09;;;11.12;63.50
21290;BME280;10804;48.988;2.408;2022-12-20T12:59:53;100419.72;;;11.13;63.54
21290;BME280;10804;48.988;2.408;2022-12-20T13:02:35;100418.03;;;11.12;63.54
21290;BME280;10804;48.988;2.408;2022-12-20T13:05:32;100409.28;;;11.13;63.58
21290;BME280;10804;48.988;2.408;2022-12-20T13:08:01;100415.41;;;11.12;63.63
21290;BME280;10804;48.988;2.408;2022-12-20T13:11:00;100419.72;;;11.13;63.56
21290;BME280;10804;48.988;2.408;2022-12-20T13:13:28;100418.91;;;11.12;63.56
21290;BME280;10804;48.988;2.408;2022-12-20T13:16:10;100410.19;;;11.12;63.59
21290;BME280;10804;48.988;2.408;2022-12-20T13:18:38;100409.28;;;11.13;63.68